sensor_id;sensor_type;location;lat;lon;timestamp;P1;durP1;ratioP1;P2;durP2;ratioP2
2362;SDS011;64265;51.664;7.626;2023-08-12T00:01:07;7.53;;;6.33;;
2362;SDS011;64265;51.664;7.626;2023-08-12T00:03:34;8.03;;;7.13;;
2362;SDS011;64265;51.664;7.626;2023-08-12T00:06:00;8.80;;;6.70;;
2362;SDS011;64265;51.664;7.626;2023-08-12T00:08:30;7.53;;;6.53;;
2362;SDS011;64265;51.664;7.626;2023-08-12T00:10:56;12.73;;;7.20;;
2362;SDS011;64265;51.664;7.626;2023-08-12T00:13:23;6.73;;;5.37;;
2362;SDS011;64265;51.664;7.626;2023-08-12T00:15:51;8.47;;;5.77;;
2362;SDS011;64265;51.664;7.626;2023-08-12T00:18:19;8.27;;;6.43;;
2362;SDS011;64265;51.664;7.626;2023-08-12T00:20:46;8.87;;;6.80;;
2362;SDS011;64265;51.664;7.626;2023-08-12T00:23:13;8.77;;;6.60;;
2362;SDS011;64265;51.664;7.626;2023-08-12T00:25:39;8.23;;;5.90;;
2362;SDS011;64265;51.664;7.626;2023-08-12T00:28:06;11.47;;;6.97;;
2362;SDS011;64265;51.664;7.626;2023-08-12T00:30:33;11.30;;;7.60;;
2362;SDS011;64265;51.664;7.626;2023-08-12T00:33:00;10.57;;;6.30;;
2362;SDS011;64265;51.664;7.626;2023-08-12T00:35:28;11.70;;;6.87;;
2362;SDS011;64265;51.664;7.626;2023-08-12T00:37:55;9.87;;;7.57;;
2362;SDS011;64265;51.664;7.626;2023-08-12T00:40:21;7.40;;;6.07;;
2362;SDS011;64265;51.664;7.626;2023-08-12T00:42:49;9.00;;;6.10;;
2362;SDS011;64265;51.664;7.626;2023-08-12T00:45:15;9.87;;;6.40;;
2362;SDS011;64265;51.664;7.626;2023-08-12T00:47:42;7.90;;;5.97;;
2362;SDS011;64265;51.664;7.626;2023-08-12T00:50:09;10.00;;;6.93;;
2362;SDS011;64265;51.664;7.626;2023-08-12T00:52:40;8.37;;;6.40;;
2362;SDS011;64265;51.664;7.626;2023-08-12T00:55:08;7.60;;;5.93;;
2362;SDS011;64265;51.664;7.626;2023-08-12T00:57:35;8.37;;;6.60;;
2362;SDS011;64265;51.664;7.626;2023-08-12T01:00:02;8.57;;;6.40;;
2362;SDS011;64265;51.664;7.626;2023-08-12T01:02:29;7.73;;;6.10;;
2362;SDS011;64265;51.664;7.626;2023-08-12T01:04:56;7.40;;;5.93;;
2362;SDS011;64265;51.664;7.626;2023-08-12T01:07:24;9.23;;;6.50;;
2362;SDS011;64265;51.664;7.626;2023-08-12T01:09:52;6.07;;;5.10;;
2362;SDS011;64265;51.664;7.626;2023-08-12T01:12:21;9.50;;;7.17;;
2362;SDS011;64265;51.664;7.626;2023-08-12T01:14:58;8.97;;;6.77;;
2362;SDS011;64265;51.664;7.626;2023-08-12T01:17:30;7.80;;;5.70;;
2362;SDS011;64265;51.664;7.626;2023-08-12T01:19:59;8.43;;;6.00;;
2362;SDS011;64265;51.664;7.626;2023-08-12T01:22:28;8.93;;;6.20;;
2362;SDS011;64265;51.664;7.626;2023-08-12T01:24:59;8.47;;;5.93;;
2362;SDS011;64265;51.664;7.626;2023-08-12T01:27:26;11.50;;;6.37;;
2362;SDS011;64265;51.664;7.626;2023-08-12T01:29:53;6.43;;;5.53;;
2362;SDS011;64265;51.664;7.626;2023-08-12T01:32:22;9.47;;;6.13;;
2362;SDS011;64265;51.664;7.626;2023-08-12T01:34:53;9.53;;;6.87;;
2362;SDS011;64265;51.664;7.626;2023-08-12T01:37:27;7.53;;;6.47;;
2362;SDS011;64265;51.664;7.626;2023-08-12T01:39:55;6.13;;;5.53;;
2362;SDS011;64265;51.664;7.626;2023-08-12T01:42:26;7.60;;;6.30;;
2362;SDS011;64265;51.664;7.626;2023-08-12T01:44:54;9.27;;;6.10;;
2362;SDS011;64265;51.664;7.626;2023-08-12T01:47:22;7.33;;;6.30;;
2362;SDS011;64265;51.664;7.626;2023-08-12T01:49:48;8.00;;;5.37;;
2362;SDS011;64265;51.664;7.626;2023-08-12T01:52:15;8.00;;;5.00;;
2362;SDS011;64265;51.664;7.626;2023-08-12T01:54:42;20.43;;;5.90;;
2362;SDS011;64265;51.664;7.626;2023-08-12T01:57:08;6.93;;;5.37;;
2362;SDS011;64265;51.664;7.626;2023-08-12T01:59:37;7.30;;;5.20;;
2362;SDS011;64265;51.664;7.626;2023-08-12T02:02:04;9.60;;;5.90;;
2362;SDS011;64265;51.664;7.626;2023-08-12T02:04:31;6.67;;;5.20;;
2362;SDS011;64265;51.664;7.626;2023-08-12T02:06:58;6.60;;;5.27;;
2362;SDS011;64265;51.664;7.626;2023-08-12T02:09:25;5.93;;;4.90;;
2362;SDS011;64265;51.664;7.626;2023-08-12T02:11:52;8.30;;;5.43;;
2362;SDS011;64265;51.664;7.626;2023-08-12T02:14:18;6.33;;;5.40;;
2362;SDS011;64265;51.664;7.626;2023-08-12T02:16:46;6.30;;;4.93;;
2362;SDS011;64265;51.664;7.626;2023-08-12T02:19:13;6.53;;;5.80;;
2362;SDS011;64265;51.664;7.626;2023-08-12T02:21:40;11.60;;;4.70;;
2362;SDS011;64265;51.664;7.626;2023-08-12T02:24:07;5.10;;;4.20;;
2362;SDS011;64265;51.664;7.626;2023-08-12T02:26:34;6.40;;;5.30;;
2362;SDS011;64265;51.664;7.626;2023-08-12T02:29:01;7.93;;;5.17;;
2362;SDS011;64265;51.664;7.626;2023-08-12T02:31:27;6.23;;;5.13;;
2362;SDS011;64265;51.664;7.626;2023-08-12T02:33:55;6.63;;;5.13;;
2362;SDS011;64265;51.664;7.626;2023-08-12T02:36:22;6.37;;;5.50;;
2362;SDS011;64265;51.664;7.626;2023-08-12T02:38:50;6.97;;;5.60;;
2362;SDS011;64265;51.664;7.626;2023-08-12T02:41:17;6.50;;;5.40;;
2362;SDS011;64265;51.664;7.626;2023-08-12T02:43:43;6.27;;;5.47;;
2362;SDS011;64265;51.664;7.626;2023-08-12T02:46:10;5.73;;;5.17;;
2362;SDS011;64265;51.664;7.626;2023-08-12T02:48:37;5.53;;;5.03;;
2362;SDS011;64265;51.664;7.626;2023-08-12T02:51:05;5.63;;;5.03;;
2362;SDS011;64265;51.664;7.626;2023-08-12T02:53:32;6.10;;;5.50;;
2362;SDS011;64265;51.664;7.626;2023-08-12T02:55:59;9.60;;;5.93;;
2362;SDS011;64265;51.664;7.626;2023-08-12T02:58:25;6.50;;;5.13;;
2362;SDS011;64265;51.664;7.626;2023-08-12T03:00:54;9.00;;;5.60;;
2362;SDS011;64265;51.664;7.626;2023-08-12T03:03:20;5.90;;;5.07;;
2362;SDS011;64265;51.664;7.626;2023-08-12T03:05:47;5.27;;;4.77;;
2362;SDS011;64265;51.664;7.626;2023-08-12T03:08:16;5.97;;;4.43;;
2362;SDS011;64265;51.664;7.626;2023-08-12T03:10:44;6.00;;;4.97;;
2362;SDS011;64265;51.664;7.626;2023-08-12T03:13:11;7.20;;;5.50;;
2362;SDS011;64265;51.664;7.626;2023-08-12T03:15:38;7.30;;;5.80;;
2362;SDS011;64265;51.664;7.626;2023-08-12T03:18:05;7.03;;;5.50;;
2362;SDS011;64265;51.664;7.626;2023-08-12T03:20:31;6.23;;;5.33;;
2362;SDS011;64265;51.664;7.626;2023-08-12T03:22:58;7.33;;;5.80;;
2362;SDS011;64265;51.664;7.626;2023-08-12T03:25:26;10.17;;;4.50;;
2362;SDS011;64265;51.664;7.626;2023-08-12T03:27:53;6.23;;;5.07;;
2362;SDS011;64265;51.664;7.626;2023-08-12T03:30:20;6.13;;;5.00;;
2362;SDS011;64265;51.664;7.626;2023-08-12T03:32:46;7.67;;;5.93;;
2362;SDS011;64265;51.664;7.626;2023-08-12T03:35:13;5.80;;;5.00;;
2362;SDS011;64265;51.664;7.626;2023-08-12T03:37:40;7.50;;;5.20;;
2362;SDS011;64265;51.664;7.626;2023-08-12T03:40:07;6.57;;;5.40;;
2362;SDS011;64265;51.664;7.626;2023-08-12T03:42:36;7.00;;;5.10;;
2362;SDS011;64265;51.664;7.626;2023-08-12T03:45:03;5.83;;;5.23;;
2362;SDS011;64265;51.664;7.626;2023-08-12T03:47:30;6.40;;;4.67;;
2362;SDS011;64265;51.664;7.626;2023-08-12T03:49:57;5.27;;;4.77;;
2362;SDS011;64265;51.664;7.626;2023-08-12T03:52:23;6.50;;;4.80;;
2362;SDS011;64265;51.664;7.626;2023-08-12T03:54:50;5.40;;;4.40;;
2362;SDS011;64265;51.664;7.626;2023-08-12T03:57:18;5.27;;;4.50;;
2362;SDS011;64265;51.664;7.626;2023-08-12T03:59:46;6.07;;;4.80;;
2362;SDS011;64265;51.664;7.626;2023-08-12T04:02:12;7.70;;;5.40;;
2362;SDS011;64265;51.664;7.626;2023-08-12T04:04:39;6.50;;;4.97;;
2362;SDS011;64265;51.664;7.626;2023-08-12T04:07:07;6.63;;;4.73;;
2362;SDS011;64265;51.664;7.626;2023-08-12T04:09:34;4.80;;;4.40;;
2362;SDS011;64265;51.664;7.626;2023-08-12T04:12:01;5.53;;;4.80;;
2362;SDS011;64265;51.664;7.626;2023-08-12T04:14:28;6.43;;;5.30;;
2362;SDS011;64265;51.664;7.626;2023-08-12T04:16:56;6.50;;;5.63;;
2362;SDS011;64265;51.664;7.626;2023-08-12T04:19:23;7.60;;;5.10;;
2362;SDS011;64265;51.664;7.626;2023-08-12T04:21:49;6.50;;;5.17;;
2362;SDS011;64265;51.664;7.626;2023-08-12T04:24:16;5.27;;;4.77;;
2362;SDS011;64265;51.664;7.626;2023-08-12T04:26:46;7.63;;;5.20;;
2362;SDS011;64265;51.664;7.626;2023-08-12T04:29:12;5.40;;;4.90;;
2362;SDS011;64265;51.664;7.626;2023-08-12T04:31:40;6.50;;;4.90;;
2362;SDS011;64265;51.664;7.626;2023-08-12T04:34:08;5.13;;;4.40;;
2362;SDS011;64265;51.664;7.626;2023-08-12T04:36:34;6.30;;;5.13;;
2362;SDS011;64265;51.664;7.626;2023-08-12T04:39:01;5.67;;;4.40;;
2362;SDS011;64265;51.664;7.626;2023-08-12T04:41:28;8.83;;;5.30;;
2362;SDS011;64265;51.664;7.626;2023-08-12T04:43:55;5.77;;;4.83;;
2362;SDS011;64265;51.664;7.626;2023-08-12T04:46:22;5.23;;;4.17;;
2362;SDS011;64265;51.664;7.626;2023-08-12T04:48:48;7.17;;;4.60;;
2362;SDS011;64265;51.664;7.626;2023-08-12T04:51:16;5.60;;;5.10;;
2362;SDS011;64265;51.664;7.626;2023-08-12T04:53:43;5.20;;;4.53;;
2362;SDS011;64265;51.664;7.626;2023-08-12T04:56:10;5.53;;;5.07;;
2362;SDS011;64265;51.664;7.626;2023-08-12T04:58:36;6.20;;;4.70;;
2362;SDS011;64265;51.664;7.626;2023-08-12T05:01:03;5.50;;;4.87;;
2362;SDS011;64265;51.664;7.626;2023-08-12T05:03:30;5.40;;;4.90;;
2362;SDS011;64265;51.664;7.626;2023-08-12T05:05:56;4.53;;;3.97;;
2362;SDS011;64265;51.664;7.626;2023-08-12T05:08:24;6.90;;;4.60;;
2362;SDS011;64265;51.664;7.626;2023-08-12T05:10:51;5.50;;;4.83;;
2362;SDS011;64265;51.664;7.626;2023-08-12T05:13:19;6.13;;;4.50;;
2362;SDS011;64265;51.664;7.626;2023-08-12T05:15:45;6.53;;;4.97;;
2362;SDS011;64265;51.664;7.626;2023-08-12T05:18:13;6.47;;;4.37;;
2362;SDS011;64265;51.664;7.626;2023-08-12T05:20:39;5.00;;;4.50;;
2362;SDS011;64265;51.664;7.626;2023-08-12T05:23:06;6.13;;;4.70;;
2362;SDS011;64265;51.664;7.626;2023-08-12T05:25:34;5.23;;;3.93;;
2362;SDS011;64265;51.664;7.626;2023-08-12T05:28:01;4.43;;;3.67;;
2362;SDS011;64265;51.664;7.626;2023-08-12T05:30:28;5.07;;;4.07;;
2362;SDS011;64265;51.664;7.626;2023-08-12T05:32:55;4.87;;;4.10;;
2362;SDS011;64265;51.664;7.626;2023-08-12T05:35:22;5.90;;;4.57;;
2362;SDS011;64265;51.664;7.626;2023-08-12T05:37:48;5.63;;;4.30;;
2362;SDS011;64265;51.664;7.626;2023-08-12T05:40:15;6.00;;;4.37;;
2362;SDS011;64265;51.664;7.626;2023-08-12T05:42:43;5.03;;;4.50;;
2362;SDS011;64265;51.664;7.626;2023-08-12T05:45:10;4.00;;;3.20;;
2362;SDS011;64265;51.664;7.626;2023-08-12T05:47:36;5.07;;;4.07;;
2362;SDS011;64265;51.664;7.626;2023-08-12T05:50:03;4.73;;;4.10;;
2362;SDS011;64265;51.664;7.626;2023-08-12T05:52:31;4.83;;;4.33;;
2362;SDS011;64265;51.664;7.626;2023-08-12T05:54:58;5.50;;;4.50;;
2362;SDS011;64265;51.664;7.626;2023-08-12T05:57:25;4.97;;;4.20;;
2362;SDS011;64265;51.664;7.626;2023-08-12T05:59:53;4.30;;;3.90;;
2362;SDS011;64265;51.664;7.626;2023-08-12T06:02:20;4.60;;;4.13;;
2362;SDS011;64265;51.664;7.626;2023-08-12T06:04:47;4.40;;;3.93;;
2362;SDS011;64265;51.664;7.626;2023-08-12T06:07:13;7.07;;;4.77;;
2362;SDS011;64265;51.664;7.626;2023-08-12T06:09:40;4.63;;;3.80;;
2362;SDS011;64265;51.664;7.626;2023-08-12T06:12:07;5.30;;;4.80;;
2362;SDS011;64265;51.664;7.626;2023-08-12T06:14:36;5.53;;;4.53;;
2362;SDS011;64265;51.664;7.626;2023-08-12T06:17:05;6.77;;;4.90;;
2362;SDS011;64265;51.664;7.626;2023-08-12T06:19:31;4.90;;;4.27;;
2362;SDS011;64265;51.664;7.626;2023-08-12T06:21:58;5.70;;;5.13;;
2362;SDS011;64265;51.664;7.626;2023-08-12T06:24:25;4.43;;;4.03;;
2362;SDS011;64265;51.664;7.626;2023-08-12T06:26:52;7.20;;;5.70;;
2362;SDS011;64265;51.664;7.626;2023-08-12T06:29:19;4.87;;;4.37;;
2362;SDS011;64265;51.664;7.626;2023-08-12T06:31:45;6.47;;;5.00;;
2362;SDS011;64265;51.664;7.626;2023-08-12T06:34:13;6.67;;;5.30;;
2362;SDS011;64265;51.664;7.626;2023-08-12T06:36:40;5.63;;;4.63;;
2362;SDS011;64265;51.664;7.626;2023-08-12T06:39:07;7.30;;;5.60;;
2362;SDS011;64265;51.664;7.626;2023-08-12T06:41:33;6.77;;;6.07;;
2362;SDS011;64265;51.664;7.626;2023-08-12T06:44:00;4.97;;;4.57;;
2362;SDS011;64265;51.664;7.626;2023-08-12T06:46:29;6.03;;;5.43;;
2362;SDS011;64265;51.664;7.626;2023-08-12T06:48:55;6.33;;;5.33;;
2362;SDS011;64265;51.664;7.626;2023-08-12T06:51:24;6.00;;;4.90;;
2362;SDS011;64265;51.664;7.626;2023-08-12T06:53:50;5.60;;;4.67;;
2362;SDS011;64265;51.664;7.626;2023-08-12T06:56:17;5.73;;;4.70;;
2362;SDS011;64265;51.664;7.626;2023-08-12T06:58:44;5.67;;;5.07;;
2362;SDS011;64265;51.664;7.626;2023-08-12T07:01:10;5.43;;;4.90;;
2362;SDS011;64265;51.664;7.626;2023-08-12T07:03:37;7.57;;;5.27;;
2362;SDS011;64265;51.664;7.626;2023-08-12T07:06:04;5.20;;;4.70;;
2362;SDS011;64265;51.664;7.626;2023-08-12T07:08:32;6.70;;;5.00;;
2362;SDS011;64265;51.664;7.626;2023-08-12T07:10:58;6.40;;;5.50;;
2362;SDS011;64265;51.664;7.626;2023-08-12T07:13:25;5.10;;;4.60;;
2362;SDS011;64265;51.664;7.626;2023-08-12T07:15:52;5.53;;;5.03;;
2362;SDS011;64265;51.664;7.626;2023-08-12T07:18:18;5.80;;;5.10;;
2362;SDS011;64265;51.664;7.626;2023-08-12T07:20:45;5.73;;;5.00;;
2362;SDS011;64265;51.664;7.626;2023-08-12T07:23:12;7.53;;;5.37;;
2362;SDS011;64265;51.664;7.626;2023-08-12T07:25:40;5.27;;;4.77;;
2362;SDS011;64265;51.664;7.626;2023-08-12T07:28:07;6.67;;;5.30;;
2362;SDS011;64265;51.664;7.626;2023-08-12T07:30:34;6.30;;;5.00;;
2362;SDS011;64265;51.664;7.626;2023-08-12T07:33:01;5.73;;;4.87;;
2362;SDS011;64265;51.664;7.626;2023-08-12T07:35:27;6.97;;;4.80;;
2362;SDS011;64265;51.664;7.626;2023-08-12T07:37:54;6.47;;;5.20;;
2362;SDS011;64265;51.664;7.626;2023-08-12T07:40:21;5.17;;;4.67;;
2362;SDS011;64265;51.664;7.626;2023-08-12T07:42:49;6.30;;;5.50;;
2362;SDS011;64265;51.664;7.626;2023-08-12T07:45:15;4.73;;;4.30;;
2362;SDS011;64265;51.664;7.626;2023-08-12T07:47:42;4.93;;;4.30;;
2362;SDS011;64265;51.664;7.626;2023-08-12T07:50:09;6.30;;;5.03;;
2362;SDS011;64265;51.664;7.626;2023-08-12T07:52:36;4.73;;;4.30;;
2362;SDS011;64265;51.664;7.626;2023-08-12T07:55:03;5.23;;;4.73;;
2362;SDS011;64265;51.664;7.626;2023-08-12T07:57:31;5.97;;;4.70;;
2362;SDS011;64265;51.664;7.626;2023-08-12T07:59:59;5.10;;;4.60;;
2362;SDS011;64265;51.664;7.626;2023-08-12T08:02:26;4.43;;;3.70;;
2362;SDS011;64265;51.664;7.626;2023-08-12T08:04:52;5.23;;;4.73;;
2362;SDS011;64265;51.664;7.626;2023-08-12T08:07:19;4.77;;;4.37;;
2362;SDS011;64265;51.664;7.626;2023-08-12T08:09:46;4.90;;;4.47;;
2362;SDS011;64265;51.664;7.626;2023-08-12T08:12:13;4.93;;;4.43;;
2362;SDS011;64265;51.664;7.626;2023-08-12T08:14:39;5.90;;;4.90;;
2362;SDS011;64265;51.664;7.626;2023-08-12T08:17:07;5.97;;;5.00;;
2362;SDS011;64265;51.664;7.626;2023-08-12T08:19:34;4.40;;;4.00;;
2362;SDS011;64265;51.664;7.626;2023-08-12T08:22:01;8.27;;;4.30;;
2362;SDS011;64265;51.664;7.626;2023-08-12T08:24:28;6.00;;;4.20;;
2362;SDS011;64265;51.664;7.626;2023-08-12T08:26:55;4.83;;;4.33;;
2362;SDS011;64265;51.664;7.626;2023-08-12T08:29:21;6.10;;;5.47;;
2362;SDS011;64265;51.664;7.626;2023-08-12T08:31:49;4.50;;;4.10;;
2362;SDS011;64265;51.664;7.626;2023-08-12T08:34:17;6.47;;;4.30;;
2362;SDS011;64265;51.664;7.626;2023-08-12T08:36:44;5.60;;;4.40;;
2362;SDS011;64265;51.664;7.626;2023-08-12T08:39:11;4.80;;;4.37;;
2362;SDS011;64265;51.664;7.626;2023-08-12T08:41:38;4.77;;;4.30;;
2362;SDS011;64265;51.664;7.626;2023-08-12T08:44:06;3.83;;;3.47;;
2362;SDS011;64265;51.664;7.626;2023-08-12T08:46:34;5.00;;;3.33;;
2362;SDS011;64265;51.664;7.626;2023-08-12T08:49:01;5.20;;;4.30;;
2362;SDS011;64265;51.664;7.626;2023-08-12T08:51:30;4.70;;;3.60;;
2362;SDS011;64265;51.664;7.626;2023-08-12T08:53:57;4.60;;;4.13;;
2362;SDS011;64265;51.664;7.626;2023-08-12T08:56:24;4.87;;;4.47;;
2362;SDS011;64265;51.664;7.626;2023-08-12T08:58:51;4.00;;;3.60;;
2362;SDS011;64265;51.664;7.626;2023-08-12T09:01:19;7.83;;;4.40;;
2362;SDS011;64265;51.664;7.626;2023-08-12T09:03:47;4.40;;;3.23;;
2362;SDS011;64265;51.664;7.626;2023-08-12T09:06:17;4.20;;;3.80;;
2362;SDS011;64265;51.664;7.626;2023-08-12T09:08:47;5.80;;;3.90;;
2362;SDS011;64265;51.664;7.626;2023-08-12T09:11:17;7.93;;;3.97;;
2362;SDS011;64265;51.664;7.626;2023-08-12T09:13:44;7.20;;;3.80;;
2362;SDS011;64265;51.664;7.626;2023-08-12T09:16:12;4.33;;;3.80;;
2362;SDS011;64265;51.664;7.626;2023-08-12T09:18:39;4.10;;;3.70;;
2362;SDS011;64265;51.664;7.626;2023-08-12T09:21:06;7.33;;;4.27;;
2362;SDS011;64265;51.664;7.626;2023-08-12T09:23:34;3.87;;;3.20;;
2362;SDS011;64265;51.664;7.626;2023-08-12T09:26:03;4.70;;;3.40;;
2362;SDS011;64265;51.664;7.626;2023-08-12T09:28:39;5.50;;;4.00;;
2362;SDS011;64265;51.664;7.626;2023-08-12T09:31:05;3.83;;;3.50;;
2362;SDS011;64265;51.664;7.626;2023-08-12T09:33:33;5.37;;;3.27;;
2362;SDS011;64265;51.664;7.626;2023-08-12T09:36:05;5.97;;;3.63;;
2362;SDS011;64265;51.664;7.626;2023-08-12T09:38:32;3.40;;;3.10;;
2362;SDS011;64265;51.664;7.626;2023-08-12T09:40:59;3.20;;;2.90;;
2362;SDS011;64265;51.664;7.626;2023-08-12T09:43:28;7.83;;;3.77;;
2362;SDS011;64265;51.664;7.626;2023-08-12T09:45:56;3.80;;;2.70;;
2362;SDS011;64265;51.664;7.626;2023-08-12T09:48:24;3.50;;;2.60;;
2362;SDS011;64265;51.664;7.626;2023-08-12T09:50:51;3.73;;;3.43;;
2362;SDS011;64265;51.664;7.626;2023-08-12T09:53:18;3.40;;;3.00;;
2362;SDS011;64265;51.664;7.626;2023-08-12T09:55:45;3.40;;;2.73;;
2362;SDS011;64265;51.664;7.626;2023-08-12T09:58:14;3.93;;;3.10;;
2362;SDS011;64265;51.664;7.626;2023-08-12T10:00:45;5.67;;;3.90;;
2362;SDS011;64265;51.664;7.626;2023-08-12T10:03:11;4.10;;;3.23;;
2362;SDS011;64265;51.664;7.626;2023-08-12T10:05:40;6.27;;;3.27;;
2362;SDS011;64265;51.664;7.626;2023-08-12T10:08:08;3.10;;;2.67;;
2362;SDS011;64265;51.664;7.626;2023-08-12T10:10:35;3.57;;;3.30;;
2362;SDS011;64265;51.664;7.626;2023-08-12T10:13:02;3.43;;;3.13;;
2362;SDS011;64265;51.664;7.626;2023-08-12T10:15:32;3.00;;;2.80;;
2362;SDS011;64265;51.664;7.626;2023-08-12T10:18:00;3.67;;;3.33;;
2362;SDS011;64265;51.664;7.626;2023-08-12T10:20:27;2.57;;;2.37;;
2362;SDS011;64265;51.664;7.626;2023-08-12T10:22:57;3.77;;;2.90;;
2362;SDS011;64265;51.664;7.626;2023-08-12T10:25:29;3.50;;;2.40;;
2362;SDS011;64265;51.664;7.626;2023-08-12T10:27:58;2.97;;;2.47;;
2362;SDS011;64265;51.664;7.626;2023-08-12T10:30:27;2.70;;;2.50;;
2362;SDS011;64265;51.664;7.626;2023-08-12T10:32:54;2.50;;;2.17;;
2362;SDS011;64265;51.664;7.626;2023-08-12T10:35:23;4.60;;;3.63;;
2362;SDS011;64265;51.664;7.626;2023-08-12T10:37:49;2.40;;;2.20;;
2362;SDS011;64265;51.664;7.626;2023-08-12T10:40:20;2.33;;;2.10;;
2362;SDS011;64265;51.664;7.626;2023-08-12T10:42:48;4.37;;;2.43;;
2362;SDS011;64265;51.664;7.626;2023-08-12T10:45:16;2.20;;;2.00;;
2362;SDS011;64265;51.664;7.626;2023-08-12T10:47:48;2.70;;;2.20;;
2362;SDS011;64265;51.664;7.626;2023-08-12T10:50:18;2.27;;;2.07;;
2362;SDS011;64265;51.664;7.626;2023-08-12T10:52:46;2.33;;;2.00;;
2362;SDS011;64265;51.664;7.626;2023-08-12T10:55:17;2.47;;;2.20;;
2362;SDS011;64265;51.664;7.626;2023-08-12T10:57:45;4.10;;;1.93;;
2362;SDS011;64265;51.664;7.626;2023-08-12T11:00:13;3.00;;;2.00;;
2362;SDS011;64265;51.664;7.626;2023-08-12T11:02:44;2.43;;;1.80;;
2362;SDS011;64265;51.664;7.626;2023-08-12T11:05:11;2.23;;;2.03;;
2362;SDS011;64265;51.664;7.626;2023-08-12T11:07:40;2.23;;;2.03;;
2362;SDS011;64265;51.664;7.626;2023-08-12T11:10:13;1.97;;;1.70;;
2362;SDS011;64265;51.664;7.626;2023-08-12T11:12:41;1.80;;;1.70;;
2362;SDS011;64265;51.664;7.626;2023-08-12T11:15:11;1.90;;;1.80;;
2362;SDS011;64265;51.664;7.626;2023-08-12T11:17:38;1.53;;;1.43;;
2362;SDS011;64265;51.664;7.626;2023-08-12T11:20:07;2.30;;;2.07;;
2362;SDS011;64265;51.664;7.626;2023-08-12T11:22:36;2.10;;;1.90;;
2362;SDS011;64265;51.664;7.626;2023-08-12T11:25:05;1.83;;;1.63;;
2362;SDS011;64265;51.664;7.626;2023-08-12T11:27:41;2.20;;;2.00;;
2362;SDS011;64265;51.664;7.626;2023-08-12T11:30:11;2.23;;;1.73;;
2362;SDS011;64265;51.664;7.626;2023-08-12T11:32:40;1.77;;;1.63;;
2362;SDS011;64265;51.664;7.626;2023-08-12T11:35:08;1.73;;;1.63;;
2362;SDS011;64265;51.664;7.626;2023-08-12T11:37:36;4.33;;;2.50;;
2362;SDS011;64265;51.664;7.626;2023-08-12T11:40:04;3.20;;;2.07;;
2362;SDS011;64265;51.664;7.626;2023-08-12T11:42:33;1.83;;;1.63;;
2362;SDS011;64265;51.664;7.626;2023-08-12T11:45:02;3.33;;;1.67;;
2362;SDS011;64265;51.664;7.626;2023-08-12T11:47:29;3.00;;;1.90;;
2362;SDS011;64265;51.664;7.626;2023-08-12T11:49:55;3.20;;;1.50;;
2362;SDS011;64265;51.664;7.626;2023-08-12T11:52:22;2.10;;;1.90;;
2362;SDS011;64265;51.664;7.626;2023-08-12T11:54:50;3.10;;;1.60;;
2362;SDS011;64265;51.664;7.626;2023-08-12T11:57:17;2.63;;;1.53;;
2362;SDS011;64265;51.664;7.626;2023-08-12T11:59:44;3.30;;;1.60;;
2362;SDS011;64265;51.664;7.626;2023-08-12T12:02:12;1.80;;;1.70;;
2362;SDS011;64265;51.664;7.626;2023-08-12T12:04:40;2.00;;;1.53;;
2362;SDS011;64265;51.664;7.626;2023-08-12T12:07:17;1.80;;;1.60;;
2362;SDS011;64265;51.664;7.626;2023-08-12T12:09:44;1.60;;;1.50;;
2362;SDS011;64265;51.664;7.626;2023-08-12T12:12:11;1.67;;;1.50;;
2362;SDS011;64265;51.664;7.626;2023-08-12T12:14:38;2.23;;;1.37;;
2362;SDS011;64265;51.664;7.626;2023-08-12T12:17:06;1.97;;;1.53;;
2362;SDS011;64265;51.664;7.626;2023-08-12T12:19:35;1.50;;;1.37;;
2362;SDS011;64265;51.664;7.626;2023-08-12T12:22:03;2.50;;;1.50;;
2362;SDS011;64265;51.664;7.626;2023-08-12T12:24:30;1.70;;;1.30;;
2362;SDS011;64265;51.664;7.626;2023-08-12T12:26:57;1.50;;;1.40;;
2362;SDS011;64265;51.664;7.626;2023-08-12T12:29:24;2.83;;;1.33;;
2362;SDS011;64265;51.664;7.626;2023-08-12T12:31:50;135.83;;;27.97;;
2362;SDS011;64265;51.664;7.626;2023-08-12T12:34:17;43.17;;;8.93;;
2362;SDS011;64265;51.664;7.626;2023-08-12T12:36:45;26.30;;;5.15;;
2362;SDS011;64265;51.664;7.626;2023-08-12T12:39:12;13.27;;;2.73;;
2362;SDS011;64265;51.664;7.626;2023-08-12T12:41:38;6.93;;;2.77;;
2362;SDS011;64265;51.664;7.626;2023-08-12T12:44:05;14.10;;;3.53;;
2362;SDS011;64265;51.664;7.626;2023-08-12T12:46:32;10.30;;;2.90;;
2362;SDS011;64265;51.664;7.626;2023-08-12T12:48:59;6.30;;;2.30;;
2362;SDS011;64265;51.664;7.626;2023-08-12T12:51:25;7.37;;;2.53;;
2362;SDS011;64265;51.664;7.626;2023-08-12T12:53:53;4.63;;;1.87;;
2362;SDS011;64265;51.664;7.626;2023-08-12T12:56:20;7.10;;;2.40;;
2362;SDS011;64265;51.664;7.626;2023-08-12T12:58:47;6.67;;;2.00;;
2362;SDS011;64265;51.664;7.626;2023-08-12T13:01:13;3.57;;;1.67;;
2362;SDS011;64265;51.664;7.626;2023-08-12T13:03:40;4.27;;;1.90;;
2362;SDS011;64265;51.664;7.626;2023-08-12T13:06:07;4.30;;;1.70;;
2362;SDS011;64265;51.664;7.626;2023-08-12T13:08:33;2.90;;;1.70;;
2362;SDS011;64265;51.664;7.626;2023-08-12T13:11:01;4.50;;;1.30;;
2362;SDS011;64265;51.664;7.626;2023-08-12T13:13:28;1.70;;;1.30;;
2362;SDS011;64265;51.664;7.626;2023-08-12T13:15:55;1.40;;;1.10;;
2362;SDS011;64265;51.664;7.626;2023-08-12T13:18:22;1.30;;;1.20;;
2362;SDS011;64265;51.664;7.626;2023-08-12T13:20:49;1.63;;;1.30;;
2362;SDS011;64265;51.664;7.626;2023-08-12T13:23:15;2.33;;;1.40;;
2362;SDS011;64265;51.664;7.626;2023-08-12T13:25:42;2.10;;;1.50;;
2362;SDS011;64265;51.664;7.626;2023-08-12T13:28:10;2.53;;;1.40;;
2362;SDS011;64265;51.664;7.626;2023-08-12T13:30:37;2.27;;;1.43;;
2362;SDS011;64265;51.664;7.626;2023-08-12T13:33:04;1.77;;;1.30;;
2362;SDS011;64265;51.664;7.626;2023-08-12T13:35:31;2.23;;;1.77;;
2362;SDS011;64265;51.664;7.626;2023-08-12T13:37:57;1.77;;;1.53;;
2362;SDS011;64265;51.664;7.626;2023-08-12T13:40:24;1.60;;;1.37;;
2362;SDS011;64265;51.664;7.626;2023-08-12T13:42:51;1.47;;;1.10;;
2362;SDS011;64265;51.664;7.626;2023-08-12T13:45:19;1.90;;;1.23;;
2362;SDS011;64265;51.664;7.626;2023-08-12T13:47:46;3.40;;;1.00;;
2362;SDS011;64265;51.664;7.626;2023-08-12T13:50:13;1.60;;;1.50;;
2362;SDS011;64265;51.664;7.626;2023-08-12T13:52:40;1.40;;;1.30;;
2362;SDS011;64265;51.664;7.626;2023-08-12T13:55:07;1.10;;;1.00;;
2362;SDS011;64265;51.664;7.626;2023-08-12T13:57:34;1.60;;;1.23;;
2362;SDS011;64265;51.664;7.626;2023-08-12T14:00:00;1.73;;;1.30;;
2362;SDS011;64265;51.664;7.626;2023-08-12T14:02:31;1.97;;;1.40;;
2362;SDS011;64265;51.664;7.626;2023-08-12T14:04:57;1.67;;;1.20;;
2362;SDS011;64265;51.664;7.626;2023-08-12T14:07:24;1.70;;;1.47;;
2362;SDS011;64265;51.664;7.626;2023-08-12T14:09:51;1.90;;;1.30;;
2362;SDS011;64265;51.664;7.626;2023-08-12T14:12:18;1.80;;;1.40;;
2362;SDS011;64265;51.664;7.626;2023-08-12T14:14:44;1.60;;;1.50;;
2362;SDS011;64265;51.664;7.626;2023-08-12T14:17:11;2.57;;;1.40;;
2362;SDS011;64265;51.664;7.626;2023-08-12T14:19:41;2.30;;;1.67;;
2362;SDS011;64265;51.664;7.626;2023-08-12T14:22:09;1.87;;;1.63;;
2362;SDS011;64265;51.664;7.626;2023-08-12T14:24:36;2.00;;;1.80;;
2362;SDS011;64265;51.664;7.626;2023-08-12T14:27:02;2.00;;;1.80;;
2362;SDS011;64265;51.664;7.626;2023-08-12T14:29:29;6.77;;;1.90;;
2362;SDS011;64265;51.664;7.626;2023-08-12T14:31:56;9.13;;;2.27;;
2362;SDS011;64265;51.664;7.626;2023-08-12T14:34:23;1.93;;;1.73;;
2362;SDS011;64265;51.664;7.626;2023-08-12T14:36:51;11.53;;;5.33;;
2362;SDS011;64265;51.664;7.626;2023-08-12T14:39:18;20.07;;;6.60;;
2362;SDS011;64265;51.664;7.626;2023-08-12T14:41:45;27.07;;;10.60;;
2362;SDS011;64265;51.664;7.626;2023-08-12T14:44:13;44.70;;;13.70;;
2362;SDS011;64265;51.664;7.626;2023-08-12T14:46:40;31.30;;;10.90;;
2362;SDS011;64265;51.664;7.626;2023-08-12T14:49:07;28.53;;;12.33;;
2362;SDS011;64265;51.664;7.626;2023-08-12T14:51:33;32.43;;;10.47;;
2362;SDS011;64265;51.664;7.626;2023-08-12T14:54:01;35.67;;;12.73;;
2362;SDS011;64265;51.664;7.626;2023-08-12T14:56:28;35.40;;;12.63;;
2362;SDS011;64265;51.664;7.626;2023-08-12T14:58:55;32.70;;;9.83;;
2362;SDS011;64265;51.664;7.626;2023-08-12T15:01:22;35.23;;;10.20;;